Time;durP1;ratioP1;P1;durP2;ratioP2;P2;SDS_P1;SDS_P2;PMS_P1;PMS_P2;Temp;Humidity;BMP_temperature;BMP_pressure;BME280_temperature;BME280_humidity;BME280_pressure;Samples;Min_cycle;Max_cycle;Signal;HPM_P1;HPM_P2
2022/05/16 00:00:08;;;;;;;6.72;1.75;;;;;;;;;;5071133;28;20051;-65
2022/05/16 00:02:35;;;;;;;5.60;1.58;;;;;;;;;;5071461;28;20142;-66
2022/05/16 00:05:03;;;;;;;5.63;1.75;;;;;;;;;;5080037;28;20116;-65
2022/05/16 00:07:30;;;;;;;5.90;1.75;;;;;;;;;;5068961;28;20073;-63
2022/05/16 00:09:57;;;;;;;7.72;2.00;;;;;;;;;;5065061;28;20287;-64
2022/05/16 00:12:23;;;;;;;8.13;2.00;;;;;;;;;;5092527;28;20048;-64
2022/05/16 00:14:50;;;;;;;7.05;2.20;;;;;;;;;;5091721;28;20066;-67
2022/05/16 00:17:17;;;;;;;5.53;1.75;;;;;;;;;;5066122;28;20043;-62
2022/05/16 00:19:44;;;;;;;6.35;2.00;;;;;;;;;;5070735;28;20048;-62
2022/05/16 00:22:12;;;;;;;5.55;1.85;;;;;;;;;;5062923;28;20056;-63
2022/05/16 00:24:39;;;;;;;6.22;2.13;;;;;;;;;;5070623;28;20051;-63
2022/05/16 00:27:06;;;;;;;9.52;1.60;;;;;;;;;;5077828;28;20047;-63
2022/05/16 00:29:33;;;;;;;10.85;1.85;;;;;;;;;;5089982;28;20052;-62
2022/05/16 00:32:00;;;;;;;3.25;1.27;;;;;;;;;;5090631;28;20028;-62
2022/05/16 00:34:26;;;;;;;7.28;2.17;;;;;;;;;;5086829;28;20120;-63
2022/05/16 00:36:53;;;;;;;8.23;1.98;;;;;;;;;;5071847;28;20081;-62
2022/05/16 00:39:22;;;;;;;7.53;1.40;;;;;;;;;;5089915;28;20053;-62
2022/05/16 00:41:52;;;;;;;8.07;1.77;;;;;;;;;;5074797;28;20056;-65
2022/05/16 00:44:19;;;;;;;5.05;1.83;;;;;;;;;;5069142;28;20151;-67
2022/05/16 00:46:47;;;;;;;10.77;2.35;;;;;;;;;;5097290;28;20060;-62
2022/05/16 00:49:17;;;;;;;5.55;1.88;;;;;;;;;;5069845;28;20064;-62
2022/05/16 00:51:45;;;;;;;9.05;2.10;;;;;;;;;;5073160;28;20059;-68
2022/05/16 00:54:18;;;;;;;6.50;1.55;;;;;;;;;;5068129;28;20056;-67
2022/05/16 00:56:46;;;;;;;8.35;1.67;;;;;;;;;;5080675;28;20123;-62
2022/05/16 00:59:13;;;;;;;9.98;1.80;;;;;;;;;;5069477;28;20123;-69
2022/05/16 01:07:09;;;;;;;9.68;2.28;;;;;;;;;;5066933;28;20560;-65
2022/05/16 01:09:36;;;;;;;10.90;2.10;;;;;;;;;;5067326;28;20052;-63
2022/05/16 01:12:05;;;;;;;5.05;1.60;;;;;;;;;;5070174;28;20086;-64
2022/05/16 01:14:38;;;;;;;7.38;1.88;;;;;;;;;;5062384;28;20096;-63
2022/05/16 01:17:05;;;;;;;10.73;2.00;;;;;;;;;;5070094;28;20058;-62
2022/05/16 01:19:33;;;;;;;9.07;1.90;;;;;;;;;;5063582;28;20048;-62
2022/05/16 01:22:01;;;;;;;11.23;2.20;;;;;;;;;;5086125;28;20073;-63
2022/05/16 01:24:29;;;;;;;6.72;2.22;;;;;;;;;;5080996;28;20059;-66
2022/05/16 01:26:57;;;;;;;6.63;1.90;;;;;;;;;;5086378;28;20064;-63
2022/05/16 01:29:24;;;;;;;4.68;2.05;;;;;;;;;;5069751;28;20412;-62
2022/05/16 01:31:50;;;;;;;7.90;1.77;;;;;;;;;;5070681;28;20069;-63
2022/05/16 01:34:17;;;;;;;5.15;1.80;;;;;;;;;;5070183;28;20079;-65
2022/05/16 01:36:43;;;;;;;8.13;1.90;;;;;;;;;;5066359;28;20064;-63
2022/05/16 01:39:10;;;;;;;3.78;1.45;;;;;;;;;;5069440;28;20109;-64
2022/05/16 01:41:38;;;;;;;6.82;1.83;;;;;;;;;;5065362;28;20063;-62
2022/05/16 01:44:05;;;;;;;8.25;1.90;;;;;;;;;;5087274;28;20040;-65
2022/05/16 01:46:33;;;;;;;5.68;1.88;;;;;;;;;;5084212;28;20123;-67
2022/05/16 01:49:00;;;;;;;10.68;1.88;;;;;;;;;;5089333;28;20048;-66
2022/05/16 01:51:27;;;;;;;11.35;1.65;;;;;;;;;;5076874;28;20044;-65
2022/05/16 01:53:53;;;;;;;7.97;2.15;;;;;;;;;;5085714;28;20052;-62
2022/05/16 01:56:20;;;;;;;5.93;1.73;;;;;;;;;;5074034;28;20109;-65
2022/05/16 01:58:49;;;;;;;8.30;2.08;;;;;;;;;;5068571;28;20044;-62
2022/05/16 02:01:16;;;;;;;10.43;2.10;;;;;;;;;;5084810;28;20079;-65
2022/05/16 02:03:44;;;;;;;8.52;2.10;;;;;;;;;;5066200;28;20043;-66
2022/05/16 02:06:11;;;;;;;5.95;1.50;;;;;;;;;;5072429;28;20056;-65
2022/05/16 02:08:38;;;;;;;9.05;2.30;;;;;;;;;;5073399;28;20187;-63
2022/05/16 02:11:06;;;;;;;4.75;1.60;;;;;;;;;;5066490;28;20087;-62
2022/05/16 02:13:33;;;;;;;6.20;2.30;;;;;;;;;;5072798;28;20062;-66
2022/05/16 02:16:02;;;;;;;7.07;2.03;;;;;;;;;;5068219;28;20079;-62
2022/05/16 02:18:29;;;;;;;12.65;3.75;;;;;;;;;;5072537;28;20052;-64
2022/05/16 02:24:38;;;;;;;7.35;2.17;;;;;;;;;;5073679;28;20060;-65
2022/05/16 02:26:26;;;;;;;7.00;1.85;;;;;;;;;;5066114;28;20055;-64
2022/05/16 02:28:53;;;;;;;9.10;1.83;;;;;;;;;;5088607;28;20063;-68
2022/05/16 02:31:21;;;;;;;4.93;1.65;;;;;;;;;;5084196;28;20051;-64
2022/05/16 02:33:48;;;;;;;5.63;2.00;;;;;;;;;;5089988;28;20097;-64
2022/05/16 02:36:15;;;;;;;7.47;2.08;;;;;;;;;;5087692;28;20047;-67
2022/05/16 02:38:42;;;;;;;5.82;1.95;;;;;;;;;;5092126;28;20071;-65
2022/05/16 02:41:09;;;;;;;6.55;2.08;;;;;;;;;;5085399;28;20097;-63
2022/05/16 02:43:35;;;;;;;5.72;1.90;;;;;;;;;;5093258;28;20051;-64
2022/05/16 02:46:02;;;;;;;6.15;2.00;;;;;;;;;;5087890;28;20059;-64
2022/05/16 02:48:31;;;;;;;5.35;1.88;;;;;;;;;;5108587;28;20051;-65
2022/05/16 02:50:57;;;;;;;8.27;1.80;;;;;;;;;;5092360;28;20152;-65
2022/05/16 02:53:24;;;;;;;5.55;1.70;;;;;;;;;;5068848;28;20076;-64
2022/05/16 02:55:50;;;;;;;3.55;1.75;;;;;;;;;;5072809;28;20062;-65
2022/05/16 02:58:17;;;;;;;12.65;2.30;;;;;;;;;;5050918;28;20343;-63
2022/05/16 03:00:44;;;;;;;12.15;2.45;;;;;;;;;;5047455;28;20163;-68
2022/05/16 03:03:10;;;;;;;8.55;2.30;;;;;;;;;;5056982;28;20048;-66
2022/05/16 03:05:38;;;;;;;9.63;2.00;;;;;;;;;;5069204;28;20306;-66
2022/05/16 03:08:06;;;;;;;5.20;1.67;;;;;;;;;;5075118;28;20093;-63
2022/05/16 03:10:32;;;;;;;4.18;1.67;;;;;;;;;;5072013;28;20052;-66
2022/05/16 03:12:59;;;;;;;7.43;1.80;;;;;;;;;;5084021;28;20113;-63
2022/05/16 03:15:29;;;;;;;5.30;1.65;;;;;;;;;;5057468;28;20052;-65
2022/05/16 03:17:57;;;;;;;14.50;2.60;;;;;;;;;;5053136;28;20105;-63
2022/05/16 03:20:24;;;;;;;9.20;2.72;;;;;;;;;;5089527;28;20047;-66
2022/05/16 03:22:52;;;;;;;6.85;1.95;;;;;;;;;;5065838;28;20081;-62
2022/05/16 03:25:19;;;;;;;9.27;2.63;;;;;;;;;;5073776;28;20059;-66
2022/05/16 03:27:47;;;;;;;6.57;2.22;;;;;;;;;;5067995;28;20132;-65
2022/05/16 03:30:14;;;;;;;4.25;1.55;;;;;;;;;;5053629;28;20052;-67
2022/05/16 03:32:40;;;;;;;11.00;2.47;;;;;;;;;;5054437;28;20062;-66
2022/05/16 03:35:08;;;;;;;8.60;2.20;;;;;;;;;;5064654;28;20059;-67
2022/05/16 03:37:35;;;;;;;6.40;2.28;;;;;;;;;;5088740;28;20048;-63
2022/05/16 03:42:47;;;;;;;5.03;1.70;;;;;;;;;;5087247;28;20188;-65
2022/05/16 03:45:14;;;;;;;7.22;2.05;;;;;;;;;;5065130;28;20048;-63
2022/05/16 03:47:41;;;;;;;6.63;2.15;;;;;;;;;;5071386;28;20052;-65
2022/05/16 03:50:08;;;;;;;7.10;2.10;;;;;;;;;;5064222;28;20076;-65
2022/05/16 03:52:35;;;;;;;11.77;2.50;;;;;;;;;;5075519;28;20055;-65
2022/05/16 03:55:03;;;;;;;21.02;3.05;;;;;;;;;;5064997;28;20050;-66
2022/05/16 03:57:31;;;;;;;11.50;2.55;;;;;;;;;;5088105;28;20093;-65
2022/05/16 03:59:58;;;;;;;10.38;2.28;;;;;;;;;;5061668;28;20040;-63
2022/05/16 04:02:25;;;;;;;9.45;2.80;;;;;;;;;;5071731;28;20059;-63
2022/05/16 04:04:51;;;;;;;7.25;2.30;;;;;;;;;;5081400;28;20052;-64
2022/05/16 04:07:21;;;;;;;5.97;2.25;;;;;;;;;;5088295;28;20139;-63
2022/05/16 04:09:48;;;;;;;8.85;2.22;;;;;;;;;;5076975;28;20124;-63
2022/05/16 04:12:16;;;;;;;8.20;2.05;;;;;;;;;;5051555;28;20063;-63
2022/05/16 04:14:42;;;;;;;4.80;2.28;;;;;;;;;;5046285;28;20063;-67
2022/05/16 04:17:09;;;;;;;4.68;1.77;;;;;;;;;;5051108;28;20060;-65
2022/05/16 04:19:37;;;;;;;10.50;2.83;;;;;;;;;;5050221;28;20082;-62
2022/05/16 04:22:04;;;;;;;5.25;1.85;;;;;;;;;;5064766;28;20139;-63
2022/05/16 04:24:30;;;;;;;10.27;3.15;;;;;;;;;;5033097;28;20057;-66
2022/05/16 04:26:57;;;;;;;7.15;2.38;;;;;;;;;;5076210;28;20055;-63
2022/05/16 04:29:25;;;;;;;5.13;1.92;;;;;;;;;;5070842;28;20120;-63
2022/05/16 04:31:52;;;;;;;9.50;2.08;;;;;;;;;;5081775;28;20075;-64
2022/05/16 04:34:18;;;;;;;7.50;2.25;;;;;;;;;;5070819;28;20105;-63
2022/05/16 04:36:45;;;;;;;8.82;2.30;;;;;;;;;;5063939;28;20056;-64
2022/05/16 04:39:12;;;;;;;7.20;2.58;;;;;;;;;;5086748;28;20116;-63
2022/05/16 04:44:24;;;;;;;11.98;2.38;;;;;;;;;;5050354;28;20064;-64
2022/05/16 04:46:51;;;;;;;5.50;2.00;;;;;;;;;;5044270;28;20048;-64
2022/05/16 04:49:18;;;;;;;10.18;2.60;;;;;;;;;;5065997;28;20056;-62
2022/05/16 04:51:44;;;;;;;9.43;2.08;;;;;;;;;;5041254;28;20053;-66
2022/05/16 04:54:11;;;;;;;6.60;2.28;;;;;;;;;;5084130;28;20364;-62
2022/05/16 04:56:38;;;;;;;5.20;2.15;;;;;;;;;;5061260;28;20145;-63
2022/05/16 04:59:05;;;;;;;5.43;2.00;;;;;;;;;;5067671;28;20044;-64
2022/05/16 05:01:33;;;;;;;7.83;2.57;;;;;;;;;;5059276;28;20048;-63
2022/05/16 05:04:00;;;;;;;5.72;2.10;;;;;;;;;;5086493;28;20053;-64
2022/05/16 05:06:27;;;;;;;11.43;2.17;;;;;;;;;;5066947;28;20052;-62
2022/05/16 05:08:54;;;;;;;12.05;2.78;;;;;;;;;;5065493;28;20047;-64
2022/05/16 05:16:50;;;;;;;10.50;2.75;;;;;;;;;;5067132;28;20082;-65
2022/05/16 05:19:17;;;;;;;4.65;2.00;;;;;;;;;;5065478;28;20135;-63
2022/05/16 05:21:44;;;;;;;6.10;1.92;;;;;;;;;;5066147;28;20128;-62
2022/05/16 05:24:10;;;;;;;6.20;2.53;;;;;;;;;;5077184;28;20048;-64
2022/05/16 05:26:39;;;;;;;8.25;2.58;;;;;;;;;;5067413;28;20078;-66
2022/05/16 05:29:06;;;;;;;6.53;2.40;;;;;;;;;;5059292;28;20052;-64
2022/05/16 05:31:32;;;;;;;8.30;2.58;;;;;;;;;;5067464;28;20047;-64
2022/05/16 05:34:01;;;;;;;11.98;3.40;;;;;;;;;;5078437;28;20076;-67
2022/05/16 05:36:28;;;;;;;8.65;2.15;;;;;;;;;;5068017;28;20092;-64
2022/05/16 05:39:01;;;;;;;7.65;2.30;;;;;;;;;;5062481;28;20048;-65
2022/05/16 05:41:28;;;;;;;3.72;1.80;;;;;;;;;;5068757;28;20059;-61
2022/05/16 05:43:54;;;;;;;9.45;2.20;;;;;;;;;;5056457;28;20044;-61
2022/05/16 05:46:21;;;;;;;7.13;2.42;;;;;;;;;;5065344;28;20052;-63
2022/05/16 05:48:48;;;;;;;14.45;2.67;;;;;;;;;;5048827;28;20052;-65
2022/05/16 05:51:16;;;;;;;12.18;2.80;;;;;;;;;;5068810;28;20117;-63
2022/05/16 05:53:43;;;;;;;9.60;2.58;;;;;;;;;;5063201;28;20087;-63
2022/05/16 05:56:10;;;;;;;5.63;2.15;;;;;;;;;;5069185;28;20083;-63
2022/05/16 05:58:37;;;;;;;6.22;2.25;;;;;;;;;;5063448;28;20051;-61
2022/05/16 06:01:04;;;;;;;8.50;1.77;;;;;;;;;;5060537;28;20061;-61
2022/05/16 06:03:31;;;;;;;8.25;2.30;;;;;;;;;;5049447;28;20060;-63
2022/05/16 06:05:57;;;;;;;8.73;2.13;;;;;;;;;;5062667;28;20048;-66
2022/05/16 06:08:27;;;;;;;4.85;1.90;;;;;;;;;;5070411;28;20063;-66
2022/05/16 06:10:55;;;;;;;8.18;2.60;;;;;;;;;;5079197;28;20075;-65
2022/05/16 06:13:22;;;;;;;3.25;1.88;;;;;;;;;;5079263;28;20123;-65
2022/05/16 06:15:49;;;;;;;6.70;2.50;;;;;;;;;;5059783;28;20061;-65
2022/05/16 06:18:17;;;;;;;9.32;2.83;;;;;;;;;;5066735;28;20067;-67
2022/05/16 06:20:44;;;;;;;8.07;2.00;;;;;;;;;;5073597;28;20075;-67
2022/05/16 06:23:10;;;;;;;7.55;2.05;;;;;;;;;;5074230;28;20067;-66
2022/05/16 06:25:42;;;;;;;10.85;2.40;;;;;;;;;;5069427;28;20055;-68
2022/05/16 06:28:10;;;;;;;4.28;1.63;;;;;;;;;;5069791;28;20147;-67
2022/05/16 06:30:38;;;;;;;9.30;2.65;;;;;;;;;;5071101;28;20055;-65
2022/05/16 06:33:05;;;;;;;6.75;2.10;;;;;;;;;;5090603;28;20047;-62
2022/05/16 06:35:32;;;;;;;12.32;3.40;;;;;;;;;;5077269;28;20055;-61
2022/05/16 06:38:06;;;;;;;10.25;2.33;;;;;;;;;;5070076;28;20053;-63
2022/05/16 06:40:32;;;;;;;9.75;2.95;;;;;;;;;;5070318;28;20039;-62
2022/05/16 06:43:01;;;;;;;8.77;2.67;;;;;;;;;;5095105;28;20043;-62
2022/05/16 06:45:27;;;;;;;11.65;2.30;;;;;;;;;;5087754;28;20048;-62
2022/05/16 06:47:54;;;;;;;10.77;3.30;;;;;;;;;;5069126;28;20044;-67
2022/05/16 06:50:21;;;;;;;5.05;1.98;;;;;;;;;;5068438;28;20053;-65
2022/05/16 06:52:47;;;;;;;12.82;3.10;;;;;;;;;;5066154;28;20056;-65
2022/05/16 06:55:14;;;;;;;6.93;2.22;;;;;;;;;;5072537;28;20048;-62
2022/05/16 06:57:41;;;;;;;8.65;2.47;;;;;;;;;;5050247;28;20053;-63
2022/05/16 07:00:10;;;;;;;10.05;3.28;;;;;;;;;;5070331;28;20051;-66
2022/05/16 07:02:37;;;;;;;16.67;3.80;;;;;;;;;;5082860;28;20047;-62
2022/05/16 07:05:03;;;;;;;7.78;2.75;;;;;;;;;;5071404;28;20105;-62
2022/05/16 07:07:31;;;;;;;4.65;2.10;;;;;;;;;;5054881;28;20049;-62
2022/05/16 07:09:58;;;;;;;6.22;2.45;;;;;;;;;;5054929;28;20052;-62
2022/05/16 07:12:24;;;;;;;6.60;2.10;;;;;;;;;;5065651;28;20059;-62
2022/05/16 07:14:51;;;;;;;11.82;2.80;;;;;;;;;;5071645;28;20121;-63
2022/05/16 07:17:19;;;;;;;12.10;2.90;;;;;;;;;;5061769;28;20100;-62
2022/05/16 07:19:46;;;;;;;5.72;2.22;;;;;;;;;;5071290;28;20051;-63
2022/05/16 07:22:14;;;;;;;5.97;2.08;;;;;;;;;;5062240;28;20076;-62
2022/05/16 07:24:41;;;;;;;9.63;2.50;;;;;;;;;;5070065;28;20071;-64
2022/05/16 07:29:53;;;;;;;6.90;2.20;;;;;;;;;;5051242;28;20052;-64
2022/05/16 07:32:21;;;;;;;9.73;3.47;;;;;;;;;;5048537;28;20053;-67
2022/05/16 07:34:48;;;;;;;9.63;3.05;;;;;;;;;;5087788;28;20060;-67
2022/05/16 07:37:14;;;;;;;12.90;3.28;;;;;;;;;;5072517;28;20047;-64
2022/05/16 07:39:41;;;;;;;5.47;2.28;;;;;;;;;;5047306;28;20071;-65
2022/05/16 07:42:09;;;;;;;7.28;2.28;;;;;;;;;;5069341;28;20047;-67
2022/05/16 07:44:36;;;;;;;12.70;3.38;;;;;;;;;;5050208;28;20041;-63
2022/05/16 07:47:03;;;;;;;9.68;3.00;;;;;;;;;;5069434;28;20131;-62
2022/05/16 07:49:31;;;;;;;7.32;2.63;;;;;;;;;;5051892;28;20075;-63
2022/05/16 07:51:58;;;;;;;18.35;3.08;;;;;;;;;;5071510;28;20141;-62
2022/05/16 07:54:25;;;;;;;7.75;3.17;;;;;;;;;;5094635;28;20103;-65
2022/05/16 07:56:51;;;;;;;8.57;2.78;;;;;;;;;;5091342;28;20058;-65
2022/05/16 07:59:18;;;;;;;12.10;3.33;;;;;;;;;;5077978;28;20102;-63
2022/05/16 08:01:44;;;;;;;10.13;3.20;;;;;;;;;;5071070;28;20067;-65
2022/05/16 08:04:12;;;;;;;6.55;2.45;;;;;;;;;;5053443;28;20052;-67
2022/05/16 08:06:49;;;;;;;6.13;2.80;;;;;;;;;;5070737;28;20117;-65
2022/05/16 08:11:59;;;;;;;5.88;2.35;;;;;;;;;;5070946;28;20048;-66
2022/05/16 08:14:27;;;;;;;9.75;2.70;;;;;;;;;;5088189;28;20040;-67
2022/05/16 08:16:54;;;;;;;5.85;2.50;;;;;;;;;;5087441;28;20101;-63
2022/05/16 08:19:20;;;;;;;10.57;3.78;;;;;;;;;;5087272;28;20094;-65
2022/05/16 08:21:50;;;;;;;6.38;2.75;;;;;;;;;;5087364;28;20062;-65
2022/05/16 08:24:18;;;;;;;11.18;3.00;;;;;;;;;;5087798;28;20055;-63
2022/05/16 08:26:44;;;;;;;7.57;2.53;;;;;;;;;;5087882;28;20085;-64
2022/05/16 08:29:11;;;;;;;9.02;2.70;;;;;;;;;;5070251;28;20068;-63
2022/05/16 08:31:37;;;;;;;7.38;2.97;;;;;;;;;;5086958;28;20113;-63
2022/05/16 08:34:05;;;;;;;10.10;3.33;;;;;;;;;;5070300;28;20105;-62
2022/05/16 08:42:02;;;;;;;9.73;3.10;;;;;;;;;;5070318;28;20100;-66
2022/05/16 08:44:31;;;;;;;9.73;2.90;;;;;;;;;;5087203;28;20048;-66
2022/05/16 08:47:02;;;;;;;7.13;3.65;;;;;;;;;;5070831;28;20051;-65
2022/05/16 08:49:32;;;;;;;7.97;3.15;;;;;;;;;;5086945;28;20055;-66
2022/05/16 08:52:03;;;;;;;14.13;3.65;;;;;;;;;;5086683;28;20114;-67
2022/05/16 08:54:33;;;;;;;6.28;2.83;;;;;;;;;;5070439;28;20080;-65
2022/05/16 08:57:03;;;;;;;9.38;3.40;;;;;;;;;;5068556;28;20174;-66
2022/05/16 08:59:32;;;;;;;8.38;3.35;;;;;;;;;;5070339;28;20060;-63
2022/05/16 09:02:03;;;;;;;9.32;3.67;;;;;;;;;;5063178;23;20062;-67
2022/05/16 09:04:44;;;;;;;13.38;3.70;;;;;;;;;;5008627;28;20041;-67
2022/05/16 09:07:15;;;;;;;12.88;3.53;;;;;;;;;;5011750;28;20136;-67
2022/05/16 09:09:46;;;;;;;14.77;3.97;;;;;;;;;;5027437;28;20184;-66
2022/05/16 09:12:29;;;;;;;9.38;2.78;;;;;;;;;;5011738;28;20053;-65
2022/05/16 09:15:03;;;;;;;7.10;2.92;;;;;;;;;;5021425;28;20049;-63
2022/05/16 09:17:33;;;;;;;12.90;3.90;;;;;;;;;;5010461;28;20057;-64
2022/05/16 09:20:06;;;;;;;16.38;4.22;;;;;;;;;;5010900;28;20053;-64
2022/05/16 09:22:34;;;;;;;9.23;3.13;;;;;;;;;;5010960;28;20053;-64
2022/05/16 09:25:03;;;;;;;6.22;2.67;;;;;;;;;;5026703;28;20456;-65
2022/05/16 09:30:19;;;;;;;9.85;4.30;;;;;;;;;;5027876;28;20060;-62
2022/05/16 09:32:49;;;;;;;13.30;4.03;;;;;;;;;;5011817;28;20054;-63
2022/05/16 09:35:25;;;;;;;10.00;3.35;;;;;;;;;;5010838;28;20054;-65
2022/05/16 09:37:54;;;;;;;13.82;4.90;;;;;;;;;;5010296;28;20057;-65
2022/05/16 09:40:21;;;;;;;10.10;3.95;;;;;;;;;;5009642;28;20061;-66
2022/05/16 09:42:49;;;;;;;8.30;3.42;;;;;;;;;;5010292;28;20049;-65
2022/05/16 09:45:19;;;;;;;8.30;3.00;;;;;;;;;;5010660;28;20107;-63
2022/05/16 09:47:47;;;;;;;7.85;3.00;;;;;;;;;;5026187;28;20300;-62
2022/05/16 09:50:15;;;;;;;6.75;2.92;;;;;;;;;;5010132;28;20041;-62
2022/05/16 09:52:46;;;;;;;13.90;4.53;;;;;;;;;;5010307;28;20054;-62
2022/05/16 09:55:14;;;;;;;6.60;2.67;;;;;;;;;;5010798;28;20068;-62
2022/05/16 09:57:41;;;;;;;12.95;4.72;;;;;;;;;;5010869;28;20058;-62
2022/05/16 10:00:16;;;;;;;19.47;3.70;;;;;;;;;;5010921;28;20144;-65
2022/05/16 10:02:44;;;;;;;14.32;3.90;;;;;;;;;;5021146;28;20061;-63
2022/05/16 10:05:24;;;;;;;4.65;2.50;;;;;;;;;;5030895;28;20048;-63
2022/05/16 10:07:52;;;;;;;11.30;4.40;;;;;;;;;;5030564;28;20053;-63
2022/05/16 10:10:20;;;;;;;20.65;4.70;;;;;;;;;;5050977;28;20049;-66
2022/05/16 10:12:48;;;;;;;8.75;3.25;;;;;;;;;;5051992;28;20048;-64
2022/05/16 10:15:14;;;;;;;7.63;2.42;;;;;;;;;;5034899;28;20121;-66
2022/05/16 10:17:43;;;;;;;6.32;2.50;;;;;;;;;;5034725;28;20072;-65
2022/05/16 10:20:14;;;;;;;7.82;3.25;;;;;;;;;;5034111;28;20125;-63
2022/05/16 10:22:41;;;;;;;8.70;3.97;;;;;;;;;;5051042;28;20057;-64
2022/05/16 10:25:10;;;;;;;13.60;4.78;;;;;;;;;;5051997;28;20053;-66
2022/05/16 10:27:39;;;;;;;8.55;3.20;;;;;;;;;;5050965;28;20048;-66
2022/05/16 10:30:08;;;;;;;9.55;3.53;;;;;;;;;;5051623;28;20102;-67
2022/05/16 10:35:27;;;;;;;14.05;5.22;;;;;;;;;;5051450;28;20064;-68
2022/05/16 10:37:58;;;;;;;11.68;3.58;;;;;;;;;;5052093;28;20049;-66
2022/05/16 10:40:28;;;;;;;13.93;4.93;;;;;;;;;;5035303;28;20045;-62
2022/05/16 10:43:03;;;;;;;13.45;4.88;;;;;;;;;;5051330;28;20049;-68
2022/05/16 10:45:31;;;;;;;7.95;2.50;;;;;;;;;;5051584;28;20053;-67
2022/05/16 10:48:00;;;;;;;;;;;;;;;;;;5051764;28;20059;-65
2022/05/16 10:50:30;;;;;;;10.05;3.45;;;;;;;;;;5051067;28;19932;-67
2022/05/16 10:52:58;;;;;;;8.10;3.55;;;;;;;;;;5032043;28;20077;-67
2022/05/16 10:55:26;;;;;;;7.00;3.10;;;;;;;;;;5033616;28;20055;-65
2022/05/16 10:58:12;;;;;;;9.23;4.20;;;;;;;;;;5050581;28;20044;-67
2022/05/16 11:00:48;;;;;;;6.45;2.72;;;;;;;;;;5049177;28;20060;-66
2022/05/16 11:03:35;;;;;;;8.45;3.53;;;;;;;;;;5033109;28;20053;-67
2022/05/16 11:06:13;;;;;;;7.82;3.50;;;;;;;;;;5033961;28;20125;-68
2022/05/16 11:08:50;;;;;;;12.07;4.07;;;;;;;;;;5051182;28;20053;-68
2022/05/16 11:11:21;;;;;;;7.68;2.95;;;;;;;;;;5055281;28;20056;-69
2022/05/16 11:13:51;;;;;;;6.95;2.80;;;;;;;;;;5036765;28;20076;-66
2022/05/16 11:16:20;;;;;;;10.35;3.80;;;;;;;;;;5050359;28;20048;-69
2022/05/16 11:18:52;;;;;;;10.52;3.28;;;;;;;;;;5033297;28;20068;-66
2022/05/16 11:21:30;;;;;;;6.78;3.30;;;;;;;;;;5031732;28;20136;-66
2022/05/16 11:23:56;;;;;;;;;;;;;;;;;;5016525;28;20075;-68
2022/05/16 11:26:26;;;;;;;7.18;2.50;;;;;;;;;;5048583;28;19924;-69
2022/05/16 11:31:43;;;;;;;15.07;3.35;;;;;;;;;;5047037;28;20186;-68
2022/05/16 11:34:15;;;;;;;10.10;3.05;;;;;;;;;;5022582;28;20051;-67
2022/05/16 11:36:49;;;;;;;9.02;2.80;;;;;;;;;;5032569;28;20041;-68
2022/05/16 11:39:18;;;;;;;8.05;2.30;;;;;;;;;;5048269;28;20146;-68
2022/05/16 11:41:50;;;;;;;7.65;2.35;;;;;;;;;;5032635;28;20048;-66
2022/05/16 11:44:28;;;;;;;8.10;2.70;;;;;;;;;;5032292;28;20049;-68
2022/05/16 11:46:56;;;;;;;10.48;2.95;;;;;;;;;;5032134;28;20056;-68
2022/05/16 11:49:27;;;;;;;8.70;2.88;;;;;;;;;;5031862;28;20099;-66
2022/05/16 11:52:18;;;;;;;11.23;3.38;;;;;;;;;;5032058;28;20049;-68
2022/05/16 11:54:48;;;;;;;8.85;3.20;;;;;;;;;;5049548;28;20060;-67
2022/05/16 12:03:13;;;;;;;5.70;2.13;;;;;;;;;;5045169;28;20081;-69
2022/05/16 12:05:42;;;;;;;6.47;2.10;;;;;;;;;;5031444;28;20055;-64
2022/05/16 12:08:27;;;;;;;6.75;2.83;;;;;;;;;;5032525;28;20140;-65
2022/05/16 12:10:57;;;;;;;11.60;3.20;;;;;;;;;;5048646;28;20052;-67
2022/05/16 12:13:27;;;;;;;6.38;2.33;;;;;;;;;;5032535;28;20068;-69
2022/05/16 12:16:12;;;;;;;7.60;3.05;;;;;;;;;;5032921;28;20110;-65
2022/05/16 12:18:40;;;;;;;9.55;2.60;;;;;;;;;;5032260;28;20130;-67
2022/05/16 12:21:10;;;;;;;7.78;3.28;;;;;;;;;;5031389;28;20056;-62
2022/05/16 12:23:58;;;;;;;12.70;2.65;;;;;;;;;;5048294;28;20057;-65
2022/05/16 12:26:39;;;;;;;8.25;3.17;;;;;;;;;;5048052;28;20131;-64
2022/05/16 12:29:20;;;;;;;8.82;4.38;;;;;;;;;;5045379;28;20118;-62
2022/05/16 12:31:51;;;;;;;9.02;4.28;;;;;;;;;;5047411;28;20059;-61
2022/05/16 12:34:42;;;;;;;5.68;2.58;;;;;;;;;;5030754;28;20048;-69
2022/05/16 12:37:10;;;;;;;11.75;5.15;;;;;;;;;;5046527;28;20053;-68
2022/05/16 12:39:37;;;;;;;;;;;;;;;;;;5031239;28;20053;-67
2022/05/16 12:42:10;;;;;;;11.10;4.97;;;;;;;;;;5047038;28;19927;-69
2022/05/16 12:44:47;;;;;;;10.32;4.43;;;;;;;;;;5030934;28;20056;-64
2022/05/16 12:47:33;;;;;;;13.07;5.47;;;;;;;;;;5031410;28;20053;-69
2022/05/16 12:50:07;;;;;;;8.60;4.47;;;;;;;;;;5030339;28;20116;-65
2022/05/16 12:52:49;;;;;;;9.15;3.65;;;;;;;;;;5047418;28;20060;-65
2022/05/16 12:55:27;;;;;;;11.98;6.57;;;;;;;;;;5014856;28;20060;-67
2022/05/16 12:58:01;;;;;;;15.27;8.35;;;;;;;;;;5030423;28;20064;-66
2022/05/16 13:00:33;;;;;;;12.80;6.43;;;;;;;;;;5046357;28;20073;-69
2022/05/16 13:03:11;;;;;;;11.40;5.43;;;;;;;;;;5043340;23;20064;-66
2022/05/16 13:05:49;;;;;;;14.20;4.85;;;;;;;;;;5051219;28;20055;-66
2022/05/16 13:08:29;;;;;;;14.27;5.95;;;;;;;;;;5066201;28;20067;-67
2022/05/16 13:10:58;;;;;;;13.05;4.07;;;;;;;;;;5066623;28;20048;-68
2022/05/16 13:13:36;;;;;;;9.52;4.18;;;;;;;;;;5067047;28;20040;-68
2022/05/16 13:16:10;;;;;;;12.45;4.05;;;;;;;;;;5067122;28;20056;-62
2022/05/16 13:18:43;;;;;;;8.80;3.47;;;;;;;;;;5050285;28;20059;-67
2022/05/16 13:21:13;;;;;;;7.53;3.58;;;;;;;;;;5066446;28;20056;-63
2022/05/16 13:23:40;;;;;;;9.55;3.60;;;;;;;;;;5067046;28;20102;-69
2022/05/16 13:31:42;;;;;;;10.40;4.22;;;;;;;;;;5067144;28;20063;-63
2022/05/16 13:34:10;;;;;;;14.32;4.70;;;;;;;;;;5067192;28;20075;-63
2022/05/16 13:36:38;;;;;;;13.93;4.32;;;;;;;;;;5050290;28;20109;-67
2022/05/16 13:39:09;;;;;;;8.98;3.70;;;;;;;;;;5066899;28;20053;-64
2022/05/16 13:41:37;;;;;;;10.75;4.18;;;;;;;;;;5067219;28;20048;-67
2022/05/16 13:44:05;;;;;;;9.55;3.60;;;;;;;;;;5068352;28;20053;-62
2022/05/16 13:46:37;;;;;;;12.32;3.60;;;;;;;;;;5072449;28;20060;-66
2022/05/16 13:49:07;;;;;;;21.08;4.43;;;;;;;;;;5056100;28;20076;-68
2022/05/16 13:51:34;;;;;;;13.70;3.88;;;;;;;;;;5071219;28;20049;-65
2022/05/16 13:54:04;;;;;;;12.05;3.47;;;;;;;;;;5071389;28;20044;-68
2022/05/16 13:56:42;;;;;;;10.73;3.83;;;;;;;;;;5054029;28;20143;-66
2022/05/16 13:59:10;;;;;;;12.45;3.85;;;;;;;;;;5069515;28;20064;-66
2022/05/16 14:01:37;;;;;;;13.07;4.55;;;;;;;;;;5070252;28;20109;-63
2022/05/16 14:04:06;;;;;;;15.52;4.22;;;;;;;;;;5054405;28;20064;-64
2022/05/16 14:06:36;;;;;;;11.07;3.10;;;;;;;;;;5070888;28;20075;-64
2022/05/16 14:09:06;;;;;;;10.27;3.03;;;;;;;;;;5053636;28;20068;-66
2022/05/16 14:11:32;;;;;;;9.88;2.80;;;;;;;;;;5070453;28;20052;-60
2022/05/16 14:14:03;;;;;;;9.57;3.75;;;;;;;;;;5070798;28;20139;-67
2022/05/16 14:16:32;;;;;;;14.05;3.13;;;;;;;;;;5071699;28;20059;-62
2022/05/16 14:19:03;;;;;;;14.30;4.00;;;;;;;;;;5071639;28;20048;-67
2022/05/16 14:21:47;;;;;;;13.80;3.88;;;;;;;;;;5070163;28;20102;-62
2022/05/16 14:24:15;;;;;;;15.55;4.38;;;;;;;;;;5053858;28;20159;-64
2022/05/16 14:26:48;;;;;;;9.32;3.20;;;;;;;;;;5070417;28;20078;-62
2022/05/16 14:29:16;;;;;;;11.20;4.15;;;;;;;;;;5069513;28;20057;-63
2022/05/16 14:31:44;;;;;;;;;;;;;;;;;;5070238;28;20056;-64
2022/05/16 14:34:22;;;;;;;11.82;3.47;;;;;;;;;;5053543;28;20003;-65
2022/05/16 14:36:52;;;;;;;8.90;2.97;;;;;;;;;;5069619;28;20048;-61
2022/05/16 14:39:20;;;;;;;21.73;5.72;;;;;;;;;;5068887;28;20048;-62
2022/05/16 14:41:52;;;;;;;16.75;5.07;;;;;;;;;;5069711;28;20072;-65
2022/05/16 14:44:20;;;;;;;6.00;2.78;;;;;;;;;;5069868;28;20076;-62
2022/05/16 14:46:50;;;;;;;;;;;;;;;;;;5053519;28;20135;-63
2022/05/16 14:49:20;;;;;;;10.90;3.92;;;;;;;;;;5053096;28;19924;-62
2022/05/16 14:51:47;;;;;;;12.15;4.63;;;;;;;;;;5070762;28;20056;-61
2022/05/16 14:54:16;;;;;;;10.90;3.85;;;;;;;;;;5070080;28;20049;-63
2022/05/16 14:56:43;;;;;;;12.00;4.25;;;;;;;;;;5064862;28;20053;-65
2022/05/16 14:59:10;;;;;;;15.73;5.00;;;;;;;;;;5044001;28;20072;-67
2022/05/16 15:04:30;;;;;;;14.13;5.20;;;;;;;;;;5054360;28;20045;-67
2022/05/16 15:06:58;;;;;;;13.75;4.65;;;;;;;;;;5089564;28;20047;-69
2022/05/16 15:09:27;;;;;;;8.90;4.13;;;;;;;;;;5072493;28;20087;-68
2022/05/16 15:11:57;;;;;;;13.55;4.63;;;;;;;;;;5073006;28;20062;-67
2022/05/16 15:14:25;;;;;;;11.32;3.38;;;;;;;;;;5072505;28;20063;-68
2022/05/16 15:16:53;;;;;;;6.70;2.80;;;;;;;;;;5072849;28;20059;-66
2022/05/16 15:19:20;;;;;;;9.25;3.55;;;;;;;;;;5072987;28;20123;-67
2022/05/16 15:21:47;;;;;;;10.55;2.95;;;;;;;;;;5072016;28;20052;-68
2022/05/16 15:24:21;;;;;;;12.95;2.90;;;;;;;;;;5072306;28;20052;-67
2022/05/16 15:26:49;;;;;;;11.38;2.65;;;;;;;;;;5071939;28;20056;-66
2022/05/16 15:29:16;;;;;;;15.60;2.70;;;;;;;;;;5071910;28;20048;-68
2022/05/16 15:31:43;;;;;;;9.15;2.70;;;;;;;;;;5071916;28;20059;-68
2022/05/16 15:34:10;;;;;;;5.78;2.45;;;;;;;;;;5072145;28;20051;-68
2022/05/16 15:36:37;;;;;;;13.00;3.15;;;;;;;;;;5072041;28;20139;-68
2022/05/16 15:39:07;;;;;;;10.97;2.70;;;;;;;;;;5071879;28;20123;-69
2022/05/16 15:41:34;;;;;;;10.15;2.55;;;;;;;;;;5071629;28;20056;-70
2022/05/16 15:44:04;;;;;;;10.75;2.80;;;;;;;;;;5072659;28;20048;-71